createdAt,value
2022-07-26T00:02:23.889Z,21.91
2022-07-26T00:12:25.724Z,21.75
2022-07-26T00:22:36.413Z,21.68
2022-07-26T00:32:39.094Z,21.62
2022-07-26T00:42:41.080Z,21.55
2022-07-26T00:52:47.181Z,21.57
2022-07-26T01:02:49.601Z,21.56
2022-07-26T01:12:51.471Z,21.30
2022-07-26T01:22:53.186Z,21.14
2022-07-26T01:32:54.848Z,21.11
2022-07-26T01:42:59.815Z,21.10
2022-07-26T01:53:01.501Z,21.02
2022-07-26T02:03:09.851Z,20.89
2022-07-26T02:13:15.580Z,20.86
2022-07-26T02:23:24.276Z,20.67
2022-07-26T02:33:27.251Z,20.52
2022-07-26T02:43:30.756Z,20.54
2022-07-26T02:53:33.103Z,20.59
2022-07-26T03:03:36.520Z,20.42
2022-07-26T03:13:38.561Z,20.30
2022-07-26T03:23:40.425Z,20.20
2022-07-26T03:33:42.332Z,20.32
2022-07-26T03:43:43.984Z,20.59
2022-07-26T03:53:45.805Z,20.87
2022-07-26T04:03:48.003Z,20.73
2022-07-26T04:13:49.857Z,20.73
2022-07-26T04:23:51.986Z,21.16
2022-07-26T04:33:53.804Z,21.65
2022-07-26T04:43:56.339Z,22.37
2022-07-26T04:54:03.245Z,22.30
2022-07-26T05:04:05.111Z,22.85
2022-07-26T05:14:09.272Z,23.09
2022-07-26T05:24:12.609Z,23.31
2022-07-26T05:34:14.745Z,23.45
2022-07-26T05:44:16.350Z,23.57
2022-07-26T05:54:22.852Z,24.21
2022-07-26T06:04:30.574Z,24.78
2022-07-26T06:14:32.389Z,25.43
2022-07-26T06:24:34.126Z,26.13
2022-07-26T06:34:49.872Z,26.63
2022-07-26T06:44:53.053Z,26.69
2022-07-26T06:54:56.120Z,27.13
2022-07-26T07:04:57.933Z,27.14
2022-07-26T07:15:06.200Z,26.96
2022-07-26T07:25:10.000Z,28.07
2022-07-26T07:35:13.249Z,28.83
2022-07-26T07:45:19.876Z,29.17
2022-07-26T07:55:46.063Z,29.66
2022-07-26T08:05:49.439Z,29.92
2022-07-26T08:15:53.823Z,30.28
2022-07-26T08:26:03.201Z,29.35
2022-07-26T08:36:09.185Z,29.30
2022-07-26T08:46:16.392Z,29.04
2022-07-26T08:56:18.135Z,30.04
2022-07-26T09:06:26.327Z,30.58
2022-07-26T09:16:30.967Z,31.87
2022-07-26T09:26:33.347Z,30.99
2022-07-26T09:36:52.591Z,30.10
2022-07-26T09:47:14.777Z,28.74
2022-07-26T09:57:22.476Z,27.34
2022-07-26T10:07:24.696Z,26.03
2022-07-26T10:17:31.810Z,23.95
2022-07-26T10:27:40.957Z,23.58
2022-07-26T10:37:59.714Z,23.65
2022-07-26T10:48:29.431Z,23.28
2022-07-26T10:58:43.278Z,22.87
2022-07-26T11:08:48.468Z,23.45
2022-07-26T11:18:50.435Z,23.51
2022-07-26T11:29:06.809Z,23.04
2022-07-26T11:39:15.212Z,23.46
2022-07-26T11:49:25.097Z,23.68
2022-07-26T11:59:36.855Z,24.06
2022-07-26T12:09:46.791Z,24.27
2022-07-26T12:19:48.659Z,25.27
2022-07-26T12:29:55.684Z,26.18
2022-07-26T12:40:18.125Z,26.35
2022-07-26T12:50:23.635Z,26.10
2022-07-26T13:00:25.792Z,25.73
2022-07-26T13:10:36.360Z,25.31
2022-07-26T13:20:38.699Z,26.17
2022-07-26T13:30:47.592Z,32.07
2022-07-26T13:40:50.575Z,26.75
2022-07-26T13:50:55.545Z,25.89
2022-07-26T14:01:02.638Z,26.27
2022-07-26T14:11:05.234Z,27.28
2022-07-26T14:21:10.493Z,28.60
2022-07-26T14:31:12.726Z,30.33
2022-07-26T14:41:16.227Z,28.08
2022-07-26T14:51:22.509Z,27.22
2022-07-26T15:01:24.332Z,26.41
2022-07-26T15:11:26.171Z,26.61
2022-07-26T15:21:28.755Z,26.27
2022-07-26T15:31:36.999Z,26.83
2022-07-26T15:41:39.386Z,27.57
2022-07-26T15:51:43.716Z,27.36
2022-07-26T16:01:47.252Z,26.51
2022-07-26T16:11:50.247Z,26.04
2022-07-26T16:21:52.244Z,25.98
2022-07-26T16:31:56.437Z,26.01
2022-07-26T16:42:07.133Z,25.60
2022-07-26T16:52:11.300Z,27.64
2022-07-26T17:02:13.232Z,27.80
2022-07-26T17:12:16.695Z,26.32
2022-07-26T17:22:18.709Z,25.43
2022-07-26T17:32:20.533Z,25.50
2022-07-26T17:42:22.982Z,24.81
2022-07-26T17:52:24.576Z,24.48
2022-07-26T18:02:34.720Z,24.03
2022-07-26T18:12:36.444Z,23.75
2022-07-26T18:22:39.466Z,23.59
2022-07-26T18:32:41.142Z,23.33
2022-07-26T18:42:51.709Z,23.07
2022-07-26T18:52:53.319Z,22.99
2022-07-26T19:02:57.944Z,22.89
2022-07-26T19:12:59.786Z,22.70
2022-07-26T19:23:01.593Z,22.69
2022-07-26T19:33:04.189Z,22.51
2022-07-26T19:43:09.128Z,22.42
2022-07-26T19:53:16.312Z,22.17
2022-07-26T20:03:19.005Z,22.10
2022-07-26T20:13:20.859Z,22.04
2022-07-26T20:23:25.710Z,21.67
2022-07-26T20:33:38.063Z,21.61
2022-07-26T20:43:39.873Z,21.53
2022-07-26T20:53:42.287Z,21.41
2022-07-26T21:03:44.549Z,21.21
2022-07-26T21:13:54.040Z,21.10
2022-07-26T21:24:04.458Z,20.93
2022-07-26T21:34:06.177Z,20.79
2022-07-26T21:44:09.484Z,20.72
2022-07-26T21:54:12.348Z,20.59
2022-07-26T22:04:14.019Z,20.50
2022-07-26T22:14:17.438Z,20.37
2022-07-26T22:24:19.252Z,20.32
2022-07-26T22:34:21.105Z,20.28
2022-07-26T22:44:25.089Z,20.17
2022-07-26T22:54:26.834Z,20.01
2022-07-26T23:04:28.532Z,19.94
2022-07-26T23:14:30.475Z,19.88
2022-07-26T23:24:32.307Z,19.76
2022-07-26T23:34:34.988Z,19.61
2022-07-26T23:44:36.808Z,19.60
2022-07-26T23:54:41.928Z,19.51
